sensor_id;sensor_type;location;lat;lon;timestamp;P1;durP1;ratioP1;P2;durP2;ratioP2
69083;SDS011;56185;48.526;9.044;2022-09-20T00:03:52;4.88;;;2.70;;
69083;SDS011;56185;48.526;9.044;2022-09-20T00:06:23;6.32;;;2.40;;
69083;SDS011;56185;48.526;9.044;2022-09-20T00:08:50;3.80;;;2.20;;
69083;SDS011;56185;48.526;9.044;2022-09-20T00:11:20;7.38;;;2.50;;
69083;SDS011;56185;48.526;9.044;2022-09-20T00:13:48;5.55;;;2.75;;
69083;SDS011;56185;48.526;9.044;2022-09-20T00:16:19;7.68;;;2.50;;
69083;SDS011;56185;48.526;9.044;2022-09-20T00:19:06;5.05;;;2.38;;
69083;SDS011;56185;48.526;9.044;2022-09-20T00:21:32;5.35;;;2.40;;
69083;SDS011;56185;48.526;9.044;2022-09-20T00:23:59;5.65;;;2.40;;
69083;SDS011;56185;48.526;9.044;2022-09-20T00:26:24;3.70;;;2.33;;
69083;SDS011;56185;48.526;9.044;2022-09-20T00:28:51;4.43;;;2.22;;
69083;SDS011;56185;48.526;9.044;2022-09-20T00:31:17;4.25;;;2.67;;
69083;SDS011;56185;48.526;9.044;2022-09-20T00:33:43;6.00;;;2.67;;
69083;SDS011;56185;48.526;9.044;2022-09-20T00:36:08;5.20;;;2.30;;
69083;SDS011;56185;48.526;9.044;2022-09-20T00:38:33;4.63;;;2.10;;
69083;SDS011;56185;48.526;9.044;2022-09-20T00:40:58;3.47;;;2.47;;
69083;SDS011;56185;48.526;9.044;2022-09-20T00:43:40;6.10;;;2.20;;
69083;SDS011;56185;48.526;9.044;2022-09-20T00:46:31;4.30;;;2.50;;
69083;SDS011;56185;48.526;9.044;2022-09-20T00:49:12;4.88;;;2.53;;
69083;SDS011;56185;48.526;9.044;2022-09-20T00:51:44;7.80;;;1.95;;
69083;SDS011;56185;48.526;9.044;2022-09-20T00:54:14;5.75;;;2.47;;
69083;SDS011;56185;48.526;9.044;2022-09-20T00:56:42;6.60;;;2.47;;
69083;SDS011;56185;48.526;9.044;2022-09-20T01:02:05;4.53;;;2.55;;
69083;SDS011;56185;48.526;9.044;2022-09-20T01:04:33;4.18;;;2.45;;
69083;SDS011;56185;48.526;9.044;2022-09-20T01:07:02;4.55;;;2.15;;
69083;SDS011;56185;48.526;9.044;2022-09-20T01:09:31;4.57;;;2.10;;
69083;SDS011;56185;48.526;9.044;2022-09-20T01:11:56;4.45;;;2.30;;
69083;SDS011;56185;48.526;9.044;2022-09-20T01:14:25;4.53;;;2.25;;
69083;SDS011;56185;48.526;9.044;2022-09-20T01:16:51;3.90;;;2.20;;
69083;SDS011;56185;48.526;9.044;2022-09-20T01:19:27;6.68;;;2.10;;
69083;SDS011;56185;48.526;9.044;2022-09-20T01:22:13;5.28;;;2.60;;
69083;SDS011;56185;48.526;9.044;2022-09-20T01:24:49;6.50;;;2.80;;
69083;SDS011;56185;48.526;9.044;2022-09-20T01:27:21;4.15;;;2.28;;
69083;SDS011;56185;48.526;9.044;2022-09-20T01:30:08;6.93;;;2.30;;
69083;SDS011;56185;48.526;9.044;2022-09-20T01:35:19;3.53;;;2.38;;
69083;SDS011;56185;48.526;9.044;2022-09-20T01:38:33;3.65;;;2.25;;
69083;SDS011;56185;48.526;9.044;2022-09-20T01:41:33;3.65;;;2.17;;
69083;SDS011;56185;48.526;9.044;2022-09-20T01:44:21;4.47;;;2.50;;
69083;SDS011;56185;48.526;9.044;2022-09-20T01:47:07;4.50;;;2.33;;
69083;SDS011;56185;48.526;9.044;2022-09-20T02:00:42;7.80;;;2.35;;
69083;SDS011;56185;48.526;9.044;2022-09-20T02:17:13;5.05;;;2.20;;
69083;SDS011;56185;48.526;9.044;2022-09-20T02:22:40;9.63;;;2.35;;
69083;SDS011;56185;48.526;9.044;2022-09-20T02:30:50;6.78;;;2.70;;
69083;SDS011;56185;48.526;9.044;2022-09-20T02:33:30;4.25;;;2.35;;
69083;SDS011;56185;48.526;9.044;2022-09-20T02:39:15;4.25;;;2.22;;
69083;SDS011;56185;48.526;9.044;2022-09-20T02:49:58;4.00;;;2.45;;
69083;SDS011;56185;48.526;9.044;2022-09-20T02:52:31;6.00;;;2.40;;
69083;SDS011;56185;48.526;9.044;2022-09-20T02:54:59;3.95;;;2.40;;
69083;SDS011;56185;48.526;9.044;2022-09-20T02:58:08;4.22;;;2.47;;
69083;SDS011;56185;48.526;9.044;2022-09-20T03:00:58;3.63;;;2.33;;
69083;SDS011;56185;48.526;9.044;2022-09-20T03:09:32;5.80;;;2.35;;
69083;SDS011;56185;48.526;9.044;2022-09-20T03:14:54;4.93;;;2.50;;
69083;SDS011;56185;48.526;9.044;2022-09-20T03:17:37;5.63;;;2.28;;
69083;SDS011;56185;48.526;9.044;2022-09-20T03:22:56;5.53;;;2.38;;
69083;SDS011;56185;48.526;9.044;2022-09-20T03:30:53;7.90;;;2.20;;
69083;SDS011;56185;48.526;9.044;2022-09-20T03:44:09;4.18;;;2.33;;
69083;SDS011;56185;48.526;9.044;2022-09-20T03:46:44;3.50;;;2.33;;
69083;SDS011;56185;48.526;9.044;2022-09-20T03:51:58;6.70;;;2.90;;
69083;SDS011;56185;48.526;9.044;2022-09-20T03:57:31;5.10;;;2.47;;
69083;SDS011;56185;48.526;9.044;2022-09-20T04:11:47;5.72;;;2.53;;
69083;SDS011;56185;48.526;9.044;2022-09-20T04:22:26;7.93;;;2.38;;
69083;SDS011;56185;48.526;9.044;2022-09-20T04:24:55;8.82;;;2.70;;
69083;SDS011;56185;48.526;9.044;2022-09-20T04:27:27;7.13;;;2.83;;
69083;SDS011;56185;48.526;9.044;2022-09-20T04:37:56;6.63;;;3.03;;
69083;SDS011;56185;48.526;9.044;2022-09-20T05:05:23;5.43;;;2.72;;
69083;SDS011;56185;48.526;9.044;2022-09-20T05:31:23;5.00;;;2.85;;
69083;SDS011;56185;48.526;9.044;2022-09-20T05:34:08;4.47;;;2.88;;
69083;SDS011;56185;48.526;9.044;2022-09-20T05:56:20;6.47;;;3.97;;
69083;SDS011;56185;48.526;9.044;2022-09-20T05:58:59;14.85;;;6.70;;
69083;SDS011;56185;48.526;9.044;2022-09-20T06:16:14;5.47;;;2.72;;
69083;SDS011;56185;48.526;9.044;2022-09-20T06:18:50;3.67;;;2.28;;
69083;SDS011;56185;48.526;9.044;2022-09-20T06:24:25;4.05;;;2.30;;
69083;SDS011;56185;48.526;9.044;2022-09-20T06:27:14;7.22;;;2.67;;
69083;SDS011;56185;48.526;9.044;2022-09-20T06:29:47;4.65;;;2.47;;
69083;SDS011;56185;48.526;9.044;2022-09-20T06:32:18;9.20;;;3.23;;
69083;SDS011;56185;48.526;9.044;2022-09-20T06:34:43;4.95;;;2.50;;
69083;SDS011;56185;48.526;9.044;2022-09-20T06:37:14;6.40;;;2.67;;
69083;SDS011;56185;48.526;9.044;2022-09-20T06:39:50;5.65;;;2.45;;
69083;SDS011;56185;48.526;9.044;2022-09-20T06:42:25;3.97;;;2.33;;
69083;SDS011;56185;48.526;9.044;2022-09-20T06:44:50;8.35;;;3.13;;
69083;SDS011;56185;48.526;9.044;2022-09-20T06:47:16;8.68;;;3.00;;
69083;SDS011;56185;48.526;9.044;2022-09-20T06:49:41;5.72;;;2.75;;
69083;SDS011;56185;48.526;9.044;2022-09-20T06:52:07;7.23;;;3.07;;
69083;SDS011;56185;48.526;9.044;2022-09-20T06:54:37;4.95;;;2.65;;
69083;SDS011;56185;48.526;9.044;2022-09-20T06:57:03;5.82;;;2.58;;
69083;SDS011;56185;48.526;9.044;2022-09-20T06:59:30;4.43;;;2.40;;
69083;SDS011;56185;48.526;9.044;2022-09-20T07:01:55;6.53;;;3.10;;
69083;SDS011;56185;48.526;9.044;2022-09-20T07:04:21;10.15;;;3.42;;
69083;SDS011;56185;48.526;9.044;2022-09-20T07:06:46;5.13;;;2.97;;
69083;SDS011;56185;48.526;9.044;2022-09-20T07:09:11;11.02;;;3.10;;
69083;SDS011;56185;48.526;9.044;2022-09-20T07:11:36;5.27;;;2.90;;
69083;SDS011;56185;48.526;9.044;2022-09-20T07:14:02;5.73;;;2.77;;
69083;SDS011;56185;48.526;9.044;2022-09-20T07:16:28;7.00;;;3.00;;
69083;SDS011;56185;48.526;9.044;2022-09-20T07:18:53;6.13;;;2.90;;
69083;SDS011;56185;48.526;9.044;2022-09-20T07:21:19;7.22;;;2.97;;
69083;SDS011;56185;48.526;9.044;2022-09-20T07:23:45;4.47;;;2.92;;
69083;SDS011;56185;48.526;9.044;2022-09-20T07:26:18;6.03;;;2.72;;
69083;SDS011;56185;48.526;9.044;2022-09-20T07:28:49;5.63;;;2.80;;
69083;SDS011;56185;48.526;9.044;2022-09-20T07:31:18;6.60;;;2.63;;
69083;SDS011;56185;48.526;9.044;2022-09-20T07:33:45;6.13;;;2.58;;
69083;SDS011;56185;48.526;9.044;2022-09-20T07:36:11;5.50;;;2.80;;
69083;SDS011;56185;48.526;9.044;2022-09-20T07:38:37;7.40;;;2.75;;
69083;SDS011;56185;48.526;9.044;2022-09-20T07:41:03;4.55;;;2.50;;
69083;SDS011;56185;48.526;9.044;2022-09-20T07:43:28;5.45;;;2.90;;
69083;SDS011;56185;48.526;9.044;2022-09-20T07:45:54;5.72;;;3.20;;
69083;SDS011;56185;48.526;9.044;2022-09-20T07:48:21;7.22;;;2.72;;
69083;SDS011;56185;48.526;9.044;2022-09-20T07:50:53;6.38;;;2.90;;
69083;SDS011;56185;48.526;9.044;2022-09-20T07:53:24;9.15;;;3.17;;
69083;SDS011;56185;48.526;9.044;2022-09-20T07:55:59;4.95;;;2.88;;
69083;SDS011;56185;48.526;9.044;2022-09-20T07:58:29;4.88;;;3.00;;
69083;SDS011;56185;48.526;9.044;2022-09-20T08:01:00;7.50;;;3.22;;
69083;SDS011;56185;48.526;9.044;2022-09-20T08:03:30;7.05;;;2.85;;
69083;SDS011;56185;48.526;9.044;2022-09-20T08:06:04;5.47;;;2.70;;
69083;SDS011;56185;48.526;9.044;2022-09-20T08:08:31;5.32;;;2.40;;
69083;SDS011;56185;48.526;9.044;2022-09-20T08:11:02;6.47;;;2.78;;
69083;SDS011;56185;48.526;9.044;2022-09-20T08:13:29;4.85;;;2.72;;
69083;SDS011;56185;48.526;9.044;2022-09-20T08:16:05;8.68;;;2.45;;
69083;SDS011;56185;48.526;9.044;2022-09-20T08:18:32;5.88;;;2.50;;
69083;SDS011;56185;48.526;9.044;2022-09-20T08:21:01;4.88;;;2.38;;
69083;SDS011;56185;48.526;9.044;2022-09-20T08:23:32;5.38;;;2.45;;
69083;SDS011;56185;48.526;9.044;2022-09-20T08:25:58;5.55;;;2.90;;
69083;SDS011;56185;48.526;9.044;2022-09-20T08:28:23;4.03;;;2.13;;
69083;SDS011;56185;48.526;9.044;2022-09-20T08:30:49;5.65;;;2.78;;
69083;SDS011;56185;48.526;9.044;2022-09-20T08:33:14;9.77;;;3.10;;
69083;SDS011;56185;48.526;9.044;2022-09-20T08:35:39;4.73;;;2.40;;
69083;SDS011;56185;48.526;9.044;2022-09-20T08:38:04;3.83;;;2.20;;
69083;SDS011;56185;48.526;9.044;2022-09-20T08:40:29;5.00;;;2.43;;
69083;SDS011;56185;48.526;9.044;2022-09-20T08:42:55;7.07;;;3.67;;
69083;SDS011;56185;48.526;9.044;2022-09-20T08:45:22;5.80;;;2.78;;
69083;SDS011;56185;48.526;9.044;2022-09-20T08:47:51;6.13;;;2.42;;
69083;SDS011;56185;48.526;9.044;2022-09-20T08:50:18;4.85;;;2.53;;
69083;SDS011;56185;48.526;9.044;2022-09-20T08:52:45;9.48;;;3.13;;
69083;SDS011;56185;48.526;9.044;2022-09-20T08:55:13;6.75;;;2.53;;
69083;SDS011;56185;48.526;9.044;2022-09-20T08:57:57;5.25;;;2.30;;
69083;SDS011;56185;48.526;9.044;2022-09-20T09:00:24;6.40;;;2.50;;
69083;SDS011;56185;48.526;9.044;2022-09-20T09:02:53;6.65;;;2.30;;
69083;SDS011;56185;48.526;9.044;2022-09-20T09:05:34;4.72;;;2.30;;
69083;SDS011;56185;48.526;9.044;2022-09-20T09:08:05;5.15;;;2.30;;
69083;SDS011;56185;48.526;9.044;2022-09-20T09:10:36;9.20;;;3.05;;
69083;SDS011;56185;48.526;9.044;2022-09-20T09:13:03;7.78;;;2.80;;
69083;SDS011;56185;48.526;9.044;2022-09-20T09:15:33;6.45;;;3.00;;
69083;SDS011;56185;48.526;9.044;2022-09-20T09:18:00;7.38;;;2.92;;
69083;SDS011;56185;48.526;9.044;2022-09-20T09:20:26;5.13;;;2.70;;
69083;SDS011;56185;48.526;9.044;2022-09-20T09:23:02;5.28;;;2.63;;
69083;SDS011;56185;48.526;9.044;2022-09-20T09:25:36;6.72;;;2.40;;
69083;SDS011;56185;48.526;9.044;2022-09-20T09:33:14;7.60;;;2.67;;
69083;SDS011;56185;48.526;9.044;2022-09-20T09:35:42;6.00;;;2.75;;
69083;SDS011;56185;48.526;9.044;2022-09-20T09:38:19;5.05;;;2.40;;
69083;SDS011;56185;48.526;9.044;2022-09-20T09:40:48;6.93;;;2.53;;
69083;SDS011;56185;48.526;9.044;2022-09-20T09:43:19;5.63;;;2.40;;
69083;SDS011;56185;48.526;9.044;2022-09-20T09:45:45;6.22;;;1.90;;
69083;SDS011;56185;48.526;9.044;2022-09-20T09:48:19;4.27;;;1.73;;
69083;SDS011;56185;48.526;9.044;2022-09-20T09:50:49;3.95;;;1.67;;
69083;SDS011;56185;48.526;9.044;2022-09-20T09:53:31;3.40;;;1.30;;
69083;SDS011;56185;48.526;9.044;2022-09-20T09:58:30;3.17;;;1.50;;
69083;SDS011;56185;48.526;9.044;2022-09-20T10:04:03;7.05;;;1.80;;
69083;SDS011;56185;48.526;9.044;2022-09-20T10:06:42;3.80;;;1.58;;
69083;SDS011;56185;48.526;9.044;2022-09-20T10:09:24;3.70;;;1.38;;
69083;SDS011;56185;48.526;9.044;2022-09-20T10:17:49;9.38;;;1.80;;
69083;SDS011;56185;48.526;9.044;2022-09-20T10:20:35;3.95;;;1.63;;
69083;SDS011;56185;48.526;9.044;2022-09-20T10:26:33;7.97;;;2.00;;
69083;SDS011;56185;48.526;9.044;2022-09-20T10:32:02;3.17;;;1.48;;
69083;SDS011;56185;48.526;9.044;2022-09-20T10:43:01;5.65;;;1.60;;
69083;SDS011;56185;48.526;9.044;2022-09-20T10:48:30;3.70;;;1.35;;
69083;SDS011;56185;48.526;9.044;2022-09-20T10:51:05;4.60;;;1.67;;
69083;SDS011;56185;48.526;9.044;2022-09-20T10:53:46;5.13;;;1.70;;
69083;SDS011;56185;48.526;9.044;2022-09-20T11:07:12;4.63;;;1.85;;
69083;SDS011;56185;48.526;9.044;2022-09-20T11:09:41;3.03;;;1.42;;
69083;SDS011;56185;48.526;9.044;2022-09-20T11:12:32;4.45;;;1.20;;
69083;SDS011;56185;48.526;9.044;2022-09-20T11:21:08;6.25;;;2.00;;
69083;SDS011;56185;48.526;9.044;2022-09-20T11:26:15;3.33;;;1.30;;
69083;SDS011;56185;48.526;9.044;2022-09-20T11:28:46;5.28;;;1.70;;
69083;SDS011;56185;48.526;9.044;2022-09-20T11:31:24;3.50;;;1.25;;
69083;SDS011;56185;48.526;9.044;2022-09-20T11:33:56;6.45;;;2.00;;
69083;SDS011;56185;48.526;9.044;2022-09-20T11:36:36;3.40;;;1.50;;
69083;SDS011;56185;48.526;9.044;2022-09-20T11:39:15;5.00;;;2.20;;
69083;SDS011;56185;48.526;9.044;2022-09-20T11:41:45;5.30;;;1.80;;
69083;SDS011;56185;48.526;9.044;2022-09-20T11:44:11;4.57;;;1.80;;
69083;SDS011;56185;48.526;9.044;2022-09-20T11:46:51;4.65;;;1.30;;
69083;SDS011;56185;48.526;9.044;2022-09-20T11:57:07;4.45;;;1.25;;
69083;SDS011;56185;48.526;9.044;2022-09-20T11:59:38;3.10;;;1.30;;
69083;SDS011;56185;48.526;9.044;2022-09-20T12:02:14;4.65;;;1.50;;
69083;SDS011;56185;48.526;9.044;2022-09-20T12:04:45;3.42;;;1.35;;
69083;SDS011;56185;48.526;9.044;2022-09-20T12:15:53;3.95;;;1.40;;
69083;SDS011;56185;48.526;9.044;2022-09-20T12:18:01;5.20;;;1.30;;
69083;SDS011;56185;48.526;9.044;2022-09-20T12:26:02;3.05;;;1.30;;
69083;SDS011;56185;48.526;9.044;2022-09-20T12:36:23;4.20;;;1.60;;
69083;SDS011;56185;48.526;9.044;2022-09-20T12:47:02;3.38;;;1.50;;
69083;SDS011;56185;48.526;9.044;2022-09-20T12:49:41;2.55;;;1.20;;
69083;SDS011;56185;48.526;9.044;2022-09-20T12:52:20;3.35;;;1.25;;
69083;SDS011;56185;48.526;9.044;2022-09-20T12:54:52;5.28;;;1.33;;
69083;SDS011;56185;48.526;9.044;2022-09-20T12:57:28;2.28;;;1.10;;
69083;SDS011;56185;48.526;9.044;2022-09-20T12:59:55;4.50;;;1.52;;
69083;SDS011;56185;48.526;9.044;2022-09-20T13:02:42;3.22;;;1.33;;
69083;SDS011;56185;48.526;9.044;2022-09-20T13:05:35;4.22;;;1.30;;
69083;SDS011;56185;48.526;9.044;2022-09-20T13:08:04;3.70;;;1.38;;
69083;SDS011;56185;48.526;9.044;2022-09-20T13:10:39;4.00;;;1.48;;
69083;SDS011;56185;48.526;9.044;2022-09-20T13:13:14;4.85;;;1.52;;
69083;SDS011;56185;48.526;9.044;2022-09-20T13:15:46;2.67;;;1.20;;
69083;SDS011;56185;48.526;9.044;2022-09-20T13:18:14;3.65;;;1.40;;
69083;SDS011;56185;48.526;9.044;2022-09-20T13:20:41;4.10;;;1.48;;
69083;SDS011;56185;48.526;9.044;2022-09-20T13:23:06;3.50;;;1.58;;
69083;SDS011;56185;48.526;9.044;2022-09-20T13:25:45;4.10;;;1.38;;
69083;SDS011;56185;48.526;9.044;2022-09-20T13:28:32;3.28;;;1.35;;
69083;SDS011;56185;48.526;9.044;2022-09-20T13:31:34;3.33;;;1.35;;
69083;SDS011;56185;48.526;9.044;2022-09-20T13:33:58;4.43;;;1.20;;
69083;SDS011;56185;48.526;9.044;2022-09-20T13:36:37;2.58;;;1.20;;
69083;SDS011;56185;48.526;9.044;2022-09-20T13:39:02;3.30;;;1.20;;
69083;SDS011;56185;48.526;9.044;2022-09-20T13:41:31;3.67;;;1.17;;
69083;SDS011;56185;48.526;9.044;2022-09-20T13:43:56;3.73;;;1.30;;
69083;SDS011;56185;48.526;9.044;2022-09-20T13:46:22;3.03;;;1.05;;
69083;SDS011;56185;48.526;9.044;2022-09-20T13:49:41;2.35;;;1.10;;
69083;SDS011;56185;48.526;9.044;2022-09-20T13:51:42;3.47;;;1.27;;
69083;SDS011;56185;48.526;9.044;2022-09-20T13:56:58;2.00;;;1.08;;
69083;SDS011;56185;48.526;9.044;2022-09-20T13:59:29;4.18;;;1.20;;
69083;SDS011;56185;48.526;9.044;2022-09-20T14:01:57;3.67;;;1.25;;
69083;SDS011;56185;48.526;9.044;2022-09-20T14:04:23;3.70;;;1.40;;
69083;SDS011;56185;48.526;9.044;2022-09-20T14:06:51;4.57;;;1.38;;
69083;SDS011;56185;48.526;9.044;2022-09-20T14:12:13;2.13;;;1.10;;
69083;SDS011;56185;48.526;9.044;2022-09-20T14:14:38;3.60;;;1.00;;
69083;SDS011;56185;48.526;9.044;2022-09-20T14:17:05;4.88;;;1.30;;
69083;SDS011;56185;48.526;9.044;2022-09-20T14:19:32;2.25;;;1.15;;
69083;SDS011;56185;48.526;9.044;2022-09-20T14:22:03;6.15;;;1.65;;
69083;SDS011;56185;48.526;9.044;2022-09-20T14:24:31;4.85;;;1.90;;
69083;SDS011;56185;48.526;9.044;2022-09-20T14:34:41;3.97;;;1.70;;
69083;SDS011;56185;48.526;9.044;2022-09-20T14:37:35;3.83;;;1.40;;
69083;SDS011;56185;48.526;9.044;2022-09-20T14:40:18;2.67;;;1.58;;
69083;SDS011;56185;48.526;9.044;2022-09-20T14:42:51;3.20;;;1.20;;
69083;SDS011;56185;48.526;9.044;2022-09-20T14:50:35;3.63;;;1.40;;
69083;SDS011;56185;48.526;9.044;2022-09-20T14:53:19;5.32;;;1.50;;
69083;SDS011;56185;48.526;9.044;2022-09-20T14:59:02;2.92;;;1.23;;
69083;SDS011;56185;48.526;9.044;2022-09-20T15:01:31;3.15;;;1.40;;
69083;SDS011;56185;48.526;9.044;2022-09-20T15:03:57;2.92;;;1.33;;
69083;SDS011;56185;48.526;9.044;2022-09-20T15:06:22;2.78;;;1.20;;
69083;SDS011;56185;48.526;9.044;2022-09-20T15:08:48;6.50;;;1.17;;
69083;SDS011;56185;48.526;9.044;2022-09-20T15:11:14;2.85;;;1.30;;
69083;SDS011;56185;48.526;9.044;2022-09-20T15:13:41;4.25;;;1.15;;
69083;SDS011;56185;48.526;9.044;2022-09-20T15:16:07;4.05;;;1.10;;
69083;SDS011;56185;48.526;9.044;2022-09-20T15:18:38;4.30;;;1.10;;
69083;SDS011;56185;48.526;9.044;2022-09-20T15:21:05;6.63;;;1.35;;
69083;SDS011;56185;48.526;9.044;2022-09-20T15:23:31;4.32;;;1.05;;
69083;SDS011;56185;48.526;9.044;2022-09-20T15:25:56;3.90;;;1.47;;
69083;SDS011;56185;48.526;9.044;2022-09-20T15:28:21;3.53;;;1.25;;
69083;SDS011;56185;48.526;9.044;2022-09-20T15:30:48;4.50;;;1.48;;
69083;SDS011;56185;48.526;9.044;2022-09-20T15:33:15;4.22;;;1.42;;
69083;SDS011;56185;48.526;9.044;2022-09-20T15:35:41;4.30;;;1.83;;
69083;SDS011;56185;48.526;9.044;2022-09-20T15:38:07;2.88;;;1.50;;
69083;SDS011;56185;48.526;9.044;2022-09-20T15:40:33;4.07;;;1.33;;
69083;SDS011;56185;48.526;9.044;2022-09-20T15:42:59;4.13;;;1.00;;
69083;SDS011;56185;48.526;9.044;2022-09-20T15:45:24;3.40;;;1.27;;
69083;SDS011;56185;48.526;9.044;2022-09-20T15:47:50;8.00;;;2.50;;
69083;SDS011;56185;48.526;9.044;2022-09-20T15:50:15;5.07;;;1.33;;
69083;SDS011;56185;48.526;9.044;2022-09-20T15:52:40;5.00;;;1.35;;
69083;SDS011;56185;48.526;9.044;2022-09-20T15:55:06;2.10;;;1.00;;
69083;SDS011;56185;48.526;9.044;2022-09-20T15:57:31;2.28;;;1.10;;
69083;SDS011;56185;48.526;9.044;2022-09-20T15:59:57;3.50;;;1.30;;
69083;SDS011;56185;48.526;9.044;2022-09-20T16:02:22;3.67;;;1.05;;
69083;SDS011;56185;48.526;9.044;2022-09-20T16:04:47;2.30;;;1.20;;
69083;SDS011;56185;48.526;9.044;2022-09-20T16:07:13;2.90;;;1.17;;
69083;SDS011;56185;48.526;9.044;2022-09-20T16:09:38;2.50;;;1.00;;
69083;SDS011;56185;48.526;9.044;2022-09-20T16:12:03;3.73;;;1.40;;
69083;SDS011;56185;48.526;9.044;2022-09-20T16:14:29;2.53;;;1.30;;
69083;SDS011;56185;48.526;9.044;2022-09-20T16:16:55;2.58;;;1.30;;
69083;SDS011;56185;48.526;9.044;2022-09-20T16:19:20;3.80;;;1.33;;
69083;SDS011;56185;48.526;9.044;2022-09-20T16:21:46;3.53;;;1.60;;
69083;SDS011;56185;48.526;9.044;2022-09-20T16:24:14;5.55;;;1.67;;
69083;SDS011;56185;48.526;9.044;2022-09-20T16:26:41;3.47;;;1.25;;
69083;SDS011;56185;48.526;9.044;2022-09-20T16:29:06;5.22;;;1.40;;
69083;SDS011;56185;48.526;9.044;2022-09-20T16:34:03;4.13;;;1.52;;
69083;SDS011;56185;48.526;9.044;2022-09-20T16:36:40;3.58;;;1.20;;
69083;SDS011;56185;48.526;9.044;2022-09-20T16:39:05;5.17;;;1.30;;
69083;SDS011;56185;48.526;9.044;2022-09-20T16:41:31;2.97;;;1.30;;
69083;SDS011;56185;48.526;9.044;2022-09-20T16:43:56;3.50;;;1.30;;
69083;SDS011;56185;48.526;9.044;2022-09-20T16:46:22;4.50;;;1.40;;
69083;SDS011;56185;48.526;9.044;2022-09-20T16:48:48;4.07;;;1.40;;
69083;SDS011;56185;48.526;9.044;2022-09-20T16:51:13;2.77;;;1.33;;
69083;SDS011;56185;48.526;9.044;2022-09-20T16:53:39;5.20;;;2.13;;
69083;SDS011;56185;48.526;9.044;2022-09-20T16:56:05;2.55;;;1.20;;
69083;SDS011;56185;48.526;9.044;2022-09-20T16:58:30;3.65;;;1.50;;
69083;SDS011;56185;48.526;9.044;2022-09-20T17:01:05;4.77;;;1.53;;
69083;SDS011;56185;48.526;9.044;2022-09-20T17:03:31;3.47;;;1.30;;
69083;SDS011;56185;48.526;9.044;2022-09-20T17:06:00;3.47;;;1.20;;
69083;SDS011;56185;48.526;9.044;2022-09-20T17:08:28;3.50;;;1.33;;
69083;SDS011;56185;48.526;9.044;2022-09-20T17:10:58;4.73;;;1.80;;
69083;SDS011;56185;48.526;9.044;2022-09-20T17:13:24;3.67;;;1.45;;
69083;SDS011;56185;48.526;9.044;2022-09-20T17:15:58;3.25;;;1.92;;
69083;SDS011;56185;48.526;9.044;2022-09-20T17:18:24;6.05;;;1.60;;
69083;SDS011;56185;48.526;9.044;2022-09-20T17:20:49;4.17;;;1.60;;
69083;SDS011;56185;48.526;9.044;2022-09-20T17:23:14;4.40;;;1.33;;
69083;SDS011;56185;48.526;9.044;2022-09-20T17:25:40;3.63;;;1.70;;
69083;SDS011;56185;48.526;9.044;2022-09-20T17:28:05;5.43;;;1.83;;
69083;SDS011;56185;48.526;9.044;2022-09-20T17:30:30;7.20;;;3.60;;
69083;SDS011;56185;48.526;9.044;2022-09-20T17:32:55;8.00;;;2.33;;
69083;SDS011;56185;48.526;9.044;2022-09-20T17:35:20;3.03;;;1.90;;
69083;SDS011;56185;48.526;9.044;2022-09-20T17:37:46;3.37;;;1.60;;
69083;SDS011;56185;48.526;9.044;2022-09-20T17:40:11;2.43;;;1.40;;
69083;SDS011;56185;48.526;9.044;2022-09-20T17:42:36;4.72;;;1.60;;
69083;SDS011;56185;48.526;9.044;2022-09-20T17:45:01;3.10;;;1.70;;
69083;SDS011;56185;48.526;9.044;2022-09-20T17:47:27;4.40;;;1.65;;
69083;SDS011;56185;48.526;9.044;2022-09-20T17:49:52;6.33;;;2.20;;
69083;SDS011;56185;48.526;9.044;2022-09-20T17:52:17;4.03;;;1.93;;
69083;SDS011;56185;48.526;9.044;2022-09-20T17:54:43;4.65;;;1.90;;
69083;SDS011;56185;48.526;9.044;2022-09-20T17:57:08;4.10;;;2.15;;
69083;SDS011;56185;48.526;9.044;2022-09-20T17:59:33;2.10;;;1.50;;
69083;SDS011;56185;48.526;9.044;2022-09-20T18:01:58;3.93;;;1.90;;
69083;SDS011;56185;48.526;9.044;2022-09-20T18:04:24;2.97;;;1.47;;
69083;SDS011;56185;48.526;9.044;2022-09-20T18:06:50;2.97;;;1.60;;
69083;SDS011;56185;48.526;9.044;2022-09-20T18:09:17;2.30;;;1.58;;
69083;SDS011;56185;48.526;9.044;2022-09-20T18:11:48;3.38;;;1.52;;
69083;SDS011;56185;48.526;9.044;2022-09-20T18:14:19;4.95;;;1.60;;
69083;SDS011;56185;48.526;9.044;2022-09-20T18:16:46;3.75;;;1.60;;
69083;SDS011;56185;48.526;9.044;2022-09-20T18:19:15;4.65;;;1.63;;
69083;SDS011;56185;48.526;9.044;2022-09-20T18:21:40;3.25;;;1.63;;
69083;SDS011;56185;48.526;9.044;2022-09-20T18:24:12;5.47;;;2.10;;
69083;SDS011;56185;48.526;9.044;2022-09-20T18:26:37;6.75;;;3.60;;
69083;SDS011;56185;48.526;9.044;2022-09-20T18:29:12;8.23;;;3.65;;
69083;SDS011;56185;48.526;9.044;2022-09-20T18:31:49;5.60;;;2.70;;
69083;SDS011;56185;48.526;9.044;2022-09-20T18:34:17;5.72;;;2.15;;
69083;SDS011;56185;48.526;9.044;2022-09-20T18:36:44;5.82;;;2.10;;
69083;SDS011;56185;48.526;9.044;2022-09-20T18:39:11;6.88;;;3.03;;
69083;SDS011;56185;48.526;9.044;2022-09-20T18:41:37;7.05;;;3.53;;
69083;SDS011;56185;48.526;9.044;2022-09-20T18:44:03;7.57;;;3.33;;
69083;SDS011;56185;48.526;9.044;2022-09-20T18:46:29;4.07;;;2.60;;
69083;SDS011;56185;48.526;9.044;2022-09-20T18:48:56;5.20;;;2.78;;
69083;SDS011;56185;48.526;9.044;2022-09-20T18:51:23;5.65;;;2.85;;
69083;SDS011;56185;48.526;9.044;2022-09-20T18:53:49;5.30;;;3.17;;
69083;SDS011;56185;48.526;9.044;2022-09-20T18:56:19;5.80;;;3.00;;
69083;SDS011;56185;48.526;9.044;2022-09-20T18:58:55;3.80;;;2.60;;
69083;SDS011;56185;48.526;9.044;2022-09-20T19:06:30;4.28;;;2.28;;
69083;SDS011;56185;48.526;9.044;2022-09-20T19:09:19;4.50;;;2.03;;
69083;SDS011;56185;48.526;9.044;2022-09-20T19:11:51;5.63;;;2.35;;
69083;SDS011;56185;48.526;9.044;2022-09-20T19:14:25;7.60;;;2.28;;
69083;SDS011;56185;48.526;9.044;2022-09-20T19:17:07;5.35;;;2.53;;
69083;SDS011;56185;48.526;9.044;2022-09-20T19:19:46;4.25;;;2.40;;
69083;SDS011;56185;48.526;9.044;2022-09-20T19:25:38;4.63;;;2.80;;
69083;SDS011;56185;48.526;9.044;2022-09-20T19:28:07;3.97;;;2.50;;
69083;SDS011;56185;48.526;9.044;2022-09-20T19:30:34;6.45;;;4.10;;
69083;SDS011;56185;48.526;9.044;2022-09-20T19:33:00;8.95;;;4.63;;
69083;SDS011;56185;48.526;9.044;2022-09-20T19:35:27;13.43;;;7.07;;
69083;SDS011;56185;48.526;9.044;2022-09-20T19:40:41;10.07;;;5.07;;
69083;SDS011;56185;48.526;9.044;2022-09-20T19:43:25;11.40;;;5.65;;
69083;SDS011;56185;48.526;9.044;2022-09-20T19:48:55;9.75;;;3.90;;
69083;SDS011;56185;48.526;9.044;2022-09-20T19:51:30;8.25;;;4.38;;
69083;SDS011;56185;48.526;9.044;2022-09-20T19:53:57;9.25;;;4.78;;
69083;SDS011;56185;48.526;9.044;2022-09-20T19:56:24;7.00;;;3.63;;
69083;SDS011;56185;48.526;9.044;2022-09-20T19:58:51;7.63;;;3.58;;
69083;SDS011;56185;48.526;9.044;2022-09-20T20:01:23;4.97;;;2.88;;
69083;SDS011;56185;48.526;9.044;2022-09-20T20:03:50;5.32;;;2.80;;
69083;SDS011;56185;48.526;9.044;2022-09-20T20:18:22;7.28;;;3.00;;
69083;SDS011;56185;48.526;9.044;2022-09-20T20:20:53;7.32;;;3.63;;
69083;SDS011;56185;48.526;9.044;2022-09-20T20:23:26;7.03;;;3.72;;
69083;SDS011;56185;48.526;9.044;2022-09-20T20:26:20;5.05;;;2.85;;
69083;SDS011;56185;48.526;9.044;2022-09-20T20:28:46;5.47;;;3.78;;
69083;SDS011;56185;48.526;9.044;2022-09-20T20:31:15;7.25;;;4.55;;
69083;SDS011;56185;48.526;9.044;2022-09-20T20:33:45;10.57;;;4.60;;
69083;SDS011;56185;48.526;9.044;2022-09-20T20:36:10;6.75;;;4.50;;
69083;SDS011;56185;48.526;9.044;2022-09-20T20:38:35;6.45;;;3.95;;
69083;SDS011;56185;48.526;9.044;2022-09-20T20:41:03;7.13;;;3.90;;
69083;SDS011;56185;48.526;9.044;2022-09-20T20:43:31;9.45;;;3.70;;
69083;SDS011;56185;48.526;9.044;2022-09-20T20:45:57;7.28;;;3.80;;
69083;SDS011;56185;48.526;9.044;2022-09-20T20:48:23;8.95;;;3.78;;
69083;SDS011;56185;48.526;9.044;2022-09-20T20:50:57;8.73;;;5.73;;